sensor_id;sensor_type;location;lat;lon;timestamp;temperature;humidity
11132;DHT22;5620;53.570;9.718;2023-10-08T11:09:06;15.80;63.60
11132;DHT22;5620;53.570;9.718;2023-10-08T11:11:32;32.50;1.00
11132;DHT22;5620;53.570;9.718;2023-10-08T11:13:59;32.00;1.00
11132;DHT22;5620;53.570;9.718;2023-10-08T11:16:25;30.90;1.00
11132;DHT22;5620;53.570;9.718;2023-10-08T11:18:51;30.10;1.00
11132;DHT22;5620;53.570;9.718;2023-10-08T11:21:18;29.40;1.00
11132;DHT22;5620;53.570;9.718;2023-10-08T11:23:47;28.80;1.00
11132;DHT22;5620;53.570;9.718;2023-10-08T11:26:13;28.10;1.00
11132;DHT22;5620;53.570;9.718;2023-10-08T11:28:39;27.20;1.00
11132;DHT22;5620;53.570;9.718;2023-10-08T11:31:05;26.60;1.00
11132;DHT22;5620;53.570;9.718;2023-10-08T11:33:31;27.20;1.00
11132;DHT22;5620;53.570;9.718;2023-10-08T11:38:22;29.60;1.00
11132;DHT22;5620;53.570;9.718;2023-10-08T11:40:48;29.20;1.00
11132;DHT22;5620;53.570;9.718;2023-10-08T11:43:15;29.50;1.00
11132;DHT22;5620;53.570;9.718;2023-10-08T11:45:41;30.40;1.00
11132;DHT22;5620;53.570;9.718;2023-10-08T11:48:07;31.20;1.00
11132;DHT22;5620;53.570;9.718;2023-10-08T11:50:32;31.90;1.00
11132;DHT22;5620;53.570;9.718;2023-10-08T11:53:02;31.60;1.00
11132;DHT22;5620;53.570;9.718;2023-10-08T11:55:27;32.40;1.00
11132;DHT22;5620;53.570;9.718;2023-10-08T11:57:53;32.50;1.00
11132;DHT22;5620;53.570;9.718;2023-10-08T12:00:19;31.70;1.00
11132;DHT22;5620;53.570;9.718;2023-10-08T12:02:46;32.20;1.00
11132;DHT22;5620;53.570;9.718;2023-10-08T12:05:12;33.70;99.90
11132;DHT22;5620;53.570;9.718;2023-10-08T12:07:37;34.30;99.90
11132;DHT22;5620;53.570;9.718;2023-10-08T12:10:03;32.90;99.90
11132;DHT22;5620;53.570;9.718;2023-10-08T12:12:29;31.50;1.00
11132;DHT22;5620;53.570;9.718;2023-10-08T12:14:54;31.30;1.00
11132;DHT22;5620;53.570;9.718;2023-10-08T12:17:20;31.60;1.00
11132;DHT22;5620;53.570;9.718;2023-10-08T12:19:45;31.20;1.00
11132;DHT22;5620;53.570;9.718;2023-10-08T12:22:11;31.20;1.00
11132;DHT22;5620;53.570;9.718;2023-10-08T12:24:36;31.60;1.00
11132;DHT22;5620;53.570;9.718;2023-10-08T12:27:02;32.40;99.90
11132;DHT22;5620;53.570;9.718;2023-10-08T12:29:27;32.50;99.90
11132;DHT22;5620;53.570;9.718;2023-10-08T12:31:53;31.30;1.00
11132;DHT22;5620;53.570;9.718;2023-10-08T12:34:18;29.80;1.00
11132;DHT22;5620;53.570;9.718;2023-10-08T12:36:44;28.30;1.00
11132;DHT22;5620;53.570;9.718;2023-10-08T12:39:09;26.90;1.00
11132;DHT22;5620;53.570;9.718;2023-10-08T12:41:35;25.70;1.00
11132;DHT22;5620;53.570;9.718;2023-10-08T12:44:00;25.10;1.00
11132;DHT22;5620;53.570;9.718;2023-10-08T12:46:27;24.90;1.00
11132;DHT22;5620;53.570;9.718;2023-10-08T12:48:53;24.70;1.00
11132;DHT22;5620;53.570;9.718;2023-10-08T12:51:28;24.50;1.00
11132;DHT22;5620;53.570;9.718;2023-10-08T12:53:54;24.20;1.00
11132;DHT22;5620;53.570;9.718;2023-10-08T12:56:20;23.60;1.00
11132;DHT22;5620;53.570;9.718;2023-10-08T12:58:45;22.90;1.00
11132;DHT22;5620;53.570;9.718;2023-10-08T13:01:11;22.20;1.00
11132;DHT22;5620;53.570;9.718;2023-10-08T13:03:37;21.70;1.00
11132;DHT22;5620;53.570;9.718;2023-10-08T13:06:03;21.40;1.00
11132;DHT22;5620;53.570;9.718;2023-10-08T13:08:29;21.10;1.00
11132;DHT22;5620;53.570;9.718;2023-10-08T13:10:54;21.00;1.00
11132;DHT22;5620;53.570;9.718;2023-10-08T13:13:20;20.90;1.00
11132;DHT22;5620;53.570;9.718;2023-10-08T13:15:45;20.80;1.00
11132;DHT22;5620;53.570;9.718;2023-10-08T13:18:11;20.90;1.00
11132;DHT22;5620;53.570;9.718;2023-10-08T13:20:36;20.90;1.00
11132;DHT22;5620;53.570;9.718;2023-10-08T13:25:28;21.00;1.00
